Time;durP1;ratioP1;P1;durP2;ratioP2;P2;SDS_P1;SDS_P2;PMS_P1;PMS_P2;Temp;Humidity;BMP_temperature;BMP_pressure;BME280_temperature;BME280_humidity;BME280_pressure;Samples;Min_cycle;Max_cycle;Signal;HPM_P1;HPM_P2
2021/11/03 00:01:29;;;;;;;38.93;22.43;;;;;;;;;;5020387;28;20588;-71
2021/11/03 00:03:54;;;;;;;35.93;22.40;;;;;;;;;;5018362;28;20735;-71
2021/11/03 00:06:21;;;;;;;37.80;23.17;;;;;;;;;;5017280;28;20263;-72
2021/11/03 00:08:47;;;;;;;36.23;22.40;;;;;;;;;;5023270;28;20182;-73
2021/11/03 00:11:13;;;;;;;45.53;26.10;;;;;;;;;;5029086;28;20197;-71
2021/11/03 00:13:38;;;;;;;41.70;24.60;;;;;;;;;;5028500;28;20352;-71
2021/11/03 00:16:03;;;;;;;39.93;24.60;;;;;;;;;;5018195;28;20205;-72
2021/11/03 00:18:28;;;;;;;47.40;24.27;;;;;;;;;;5024386;28;20182;-71
2021/11/03 00:20:55;;;;;;;137.60;37.33;;;;;;;;;;5016236;28;20396;-70
2021/11/03 00:23:20;;;;;;;141.43;34.33;;;;;;;;;;5000483;28;20186;-71
2021/11/03 00:25:46;;;;;;;60.00;23.77;;;;;;;;;;5007710;28;21920;-71
2021/11/03 00:28:12;;;;;;;110.90;33.40;;;;;;;;;;5013941;28;20190;-71
2021/11/03 00:30:37;;;;;;;49.23;23.53;;;;;;;;;;5009321;28;20221;-71
2021/11/03 00:33:03;;;;;;;117.30;30.40;;;;;;;;;;5021811;28;20653;-71
2021/11/03 00:35:28;;;;;;;81.73;24.73;;;;;;;;;;5009090;28;20222;-72
2021/11/03 00:37:53;;;;;;;129.73;33.17;;;;;;;;;;5009324;28;20183;-72
2021/11/03 00:40:18;;;;;;;46.07;21.47;;;;;;;;;;5022271;28;20186;-73
2021/11/03 00:42:44;;;;;;;135.83;32.07;;;;;;;;;;5009853;28;20197;-71
2021/11/03 00:45:09;;;;;;;77.93;24.03;;;;;;;;;;5008282;28;20205;-72
2021/11/03 00:47:34;;;;;;;54.43;21.73;;;;;;;;;;5007989;28;20257;-71
2021/11/03 00:49:59;;;;;;;94.13;28.63;;;;;;;;;;5008098;28;20190;-71
2021/11/03 00:52:25;;;;;;;35.63;20.23;;;;;;;;;;5006242;28;20229;-71
2021/11/03 00:54:50;;;;;;;33.03;19.67;;;;;;;;;;5007451;28;20202;-71
2021/11/03 00:57:15;;;;;;;37.77;22.23;;;;;;;;;;5017710;28;20249;-71
2021/11/03 00:59:40;;;;;;;34.83;20.90;;;;;;;;;;5006970;28;20190;-71
2021/11/03 01:02:05;;;;;;;33.47;20.10;;;;;;;;;;5007399;28;20190;-73
2021/11/03 01:04:31;;;;;;;35.93;21.17;;;;;;;;;;5017448;28;20683;-71
2021/11/03 01:06:56;;;;;;;30.10;19.50;;;;;;;;;;5008437;28;20320;-73
2021/11/03 01:09:21;;;;;;;33.07;20.70;;;;;;;;;;5008701;28;20399;-71
2021/11/03 01:11:47;;;;;;;36.13;21.47;;;;;;;;;;5008341;28;20194;-71
2021/11/03 01:14:12;;;;;;;32.93;20.17;;;;;;;;;;5007341;28;20206;-71
2021/11/03 01:16:37;;;;;;;35.07;20.53;;;;;;;;;;5012176;28;20186;-72
2021/11/03 01:19:04;;;;;;;32.17;20.23;;;;;;;;;;5011235;28;20197;-74
2021/11/03 01:21:29;;;;;;;32.83;20.77;;;;;;;;;;5008520;28;20194;-72
2021/11/03 01:23:54;;;;;;;32.17;19.33;;;;;;;;;;5007976;28;20264;-72
2021/11/03 01:26:20;;;;;;;38.03;20.73;;;;;;;;;;5010577;28;20869;-72
2021/11/03 01:28:46;;;;;;;37.20;22.77;;;;;;;;;;5005780;28;20187;-71
2021/11/03 01:31:12;;;;;;;39.63;22.30;;;;;;;;;;5008079;28;20444;-72
2021/11/03 01:33:37;;;;;;;36.27;20.93;;;;;;;;;;5008436;28;20182;-72
2021/11/03 01:36:02;;;;;;;29.87;19.40;;;;;;;;;;5009333;28;20186;-72
2021/11/03 01:38:27;;;;;;;34.70;20.87;;;;;;;;;;5001940;28;20190;-72
2021/11/03 01:40:53;;;;;;;33.27;18.97;;;;;;;;;;5003146;28;20190;-72
2021/11/03 01:43:37;;;;;;;44.97;21.87;;;;;;;;;;5013959;28;20199;-72
2021/11/03 01:46:14;;;;;;;35.43;21.97;;;;;;;;;;5006993;28;20213;-73
2021/11/03 01:48:40;;;;;;;36.13;20.90;;;;;;;;;;5006335;28;20178;-72
2021/11/03 01:51:05;;;;;;;37.67;22.67;;;;;;;;;;5007316;28;21316;-72
2021/11/03 01:53:30;;;;;;;40.90;22.60;;;;;;;;;;5006242;28;20175;-72
2021/11/03 01:56:01;;;;;;;43.90;24.33;;;;;;;;;;5022119;28;20628;-72
2021/11/03 01:58:31;;;;;;;40.63;22.50;;;;;;;;;;5007893;28;20182;-72
2021/11/03 02:00:57;;;;;;;45.60;24.87;;;;;;;;;;5006344;28;20552;-72
2021/11/03 02:03:24;;;;;;;40.20;24.80;;;;;;;;;;5006362;28;20186;-71
2021/11/03 02:05:51;;;;;;;43.67;23.33;;;;;;;;;;5010165;28;22261;-71
2021/11/03 02:08:18;;;;;;;57.20;27.50;;;;;;;;;;5006689;28;20191;-71
2021/11/03 02:10:43;;;;;;;59.97;24.90;;;;;;;;;;5006965;28;20183;-72
2021/11/03 02:13:09;;;;;;;82.67;28.73;;;;;;;;;;5005626;28;20210;-72
2021/11/03 02:15:34;;;;;;;107.40;30.53;;;;;;;;;;5007409;28;20315;-72
2021/11/03 02:18:00;;;;;;;107.13;29.70;;;;;;;;;;5011906;28;20297;-71
2021/11/03 02:20:25;;;;;;;83.07;28.13;;;;;;;;;;5006163;28;20263;-71
2021/11/03 02:22:50;;;;;;;93.83;28.53;;;;;;;;;;5006005;28;20277;-72
2021/11/03 02:25:27;;;;;;;89.70;27.97;;;;;;;;;;5004214;28;20214;-74
2021/11/03 02:27:53;;;;;;;94.00;30.20;;;;;;;;;;5007809;28;20265;-72
2021/11/03 02:30:21;;;;;;;84.90;28.57;;;;;;;;;;5007104;28;20179;-73
2021/11/03 02:32:51;;;;;;;142.90;33.00;;;;;;;;;;5006778;28;20667;-73
2021/11/03 02:35:16;;;;;;;111.13;29.30;;;;;;;;;;5006473;28;20217;-72
2021/11/03 02:37:41;;;;;;;123.03;31.07;;;;;;;;;;5008141;28;20178;-72
2021/11/03 02:40:10;;;;;;;209.97;33.40;;;;;;;;;;5005760;28;20545;-73
2021/11/03 02:42:37;;;;;;;236.27;37.87;;;;;;;;;;5006897;28;21045;-73
2021/11/03 02:45:04;;;;;;;238.93;35.13;;;;;;;;;;5017365;28;20292;-72
2021/11/03 02:47:30;;;;;;;233.30;36.23;;;;;;;;;;5021639;28;20187;-72
2021/11/03 02:49:55;;;;;;;234.23;33.47;;;;;;;;;;5006971;28;20183;-73
2021/11/03 02:52:22;;;;;;;320.23;39.53;;;;;;;;;;5007203;28;20206;-74
2021/11/03 02:54:48;;;;;;;375.50;46.03;;;;;;;;;;5008059;28;20703;-74
2021/11/03 02:57:14;;;;;;;115.73;27.90;;;;;;;;;;5007153;28;20190;-74
2021/11/03 02:59:39;;;;;;;162.17;30.03;;;;;;;;;;5004189;28;20188;-74
2021/11/03 03:02:05;;;;;;;94.13;26.67;;;;;;;;;;5003876;28;20186;-74
2021/11/03 03:04:54;;;;;;;214.67;36.03;;;;;;;;;;5003929;28;20471;-73
2021/11/03 03:07:20;;;;;;;193.03;29.53;;;;;;;;;;5001536;28;20714;-73
2021/11/03 03:09:46;;;;;;;125.70;29.23;;;;;;;;;;5027837;28;20181;-73
2021/11/03 03:12:12;;;;;;;146.77;31.10;;;;;;;;;;5005557;28;20188;-73
2021/11/03 03:14:40;;;;;;;45.93;20.27;;;;;;;;;;5007617;28;20206;-74
2021/11/03 03:17:07;;;;;;;43.13;21.07;;;;;;;;;;5006670;28;20664;-73
2021/11/03 03:19:32;;;;;;;126.27;30.03;;;;;;;;;;5008176;28;20190;-73
2021/11/03 03:21:58;;;;;;;77.93;26.50;;;;;;;;;;5005401;28;20192;-73
2021/11/03 03:24:23;;;;;;;33.33;19.77;;;;;;;;;;5003024;28;20210;-73
2021/11/03 03:26:48;;;;;;;60.00;22.77;;;;;;;;;;5007221;28;20220;-73
2021/11/03 03:29:14;;;;;;;28.33;18.37;;;;;;;;;;5003533;28;20181;-73
2021/11/03 03:31:40;;;;;;;46.27;20.83;;;;;;;;;;5006203;28;20188;-73
2021/11/03 03:34:06;;;;;;;53.63;21.70;;;;;;;;;;5005919;28;20568;-73
2021/11/03 03:36:32;;;;;;;67.77;24.70;;;;;;;;;;5003469;28;20664;-74
2021/11/03 03:38:57;;;;;;;36.17;19.23;;;;;;;;;;5004198;28;20193;-74
2021/11/03 03:41:24;;;;;;;26.23;19.27;;;;;;;;;;5004698;28;20182;-73
2021/11/03 03:43:49;;;;;;;72.17;23.83;;;;;;;;;;5004886;28;20206;-73
2021/11/03 03:46:15;;;;;;;41.67;21.10;;;;;;;;;;5004816;28;20720;-73
2021/11/03 03:48:41;;;;;;;43.10;20.80;;;;;;;;;;5004121;28;20178;-73
2021/11/03 03:51:07;;;;;;;38.40;21.33;;;;;;;;;;5005029;28;20182;-73
2021/11/03 03:53:32;;;;;;;88.83;23.73;;;;;;;;;;5002478;28;20656;-74
2021/11/03 03:55:57;;;;;;;34.53;20.03;;;;;;;;;;5005645;28;20560;-73
2021/11/03 03:58:22;;;;;;;33.00;17.67;;;;;;;;;;5003825;28;20178;-73
2021/11/03 04:00:49;;;;;;;32.93;18.17;;;;;;;;;;5003197;28;20972;-73
2021/11/03 04:03:14;;;;;;;27.43;17.03;;;;;;;;;;5020940;28;20193;-73
2021/11/03 04:05:43;;;;;;;35.27;19.53;;;;;;;;;;5007851;28;20217;-74
2021/11/03 04:08:08;;;;;;;38.73;19.03;;;;;;;;;;5003629;28;20178;-73
2021/11/03 04:10:33;;;;;;;86.93;21.60;;;;;;;;;;5004386;28;20221;-73
2021/11/03 04:12:59;;;;;;;93.17;24.83;;;;;;;;;;5004874;28;20181;-73
2021/11/03 04:15:24;;;;;;;54.20;21.00;;;;;;;;;;5006093;28;20419;-73
2021/11/03 04:17:49;;;;;;;57.73;23.00;;;;;;;;;;5008165;28;20662;-73
2021/11/03 04:20:15;;;;;;;93.57;23.07;;;;;;;;;;5007370;28;20668;-73
2021/11/03 04:22:41;;;;;;;111.93;27.00;;;;;;;;;;5017599;28;20746;-73
2021/11/03 04:25:07;;;;;;;107.73;28.93;;;;;;;;;;5012966;28;20287;-73
2021/11/03 04:27:32;;;;;;;167.47;30.37;;;;;;;;;;5012074;28;20186;-74
2021/11/03 04:29:57;;;;;;;68.73;25.40;;;;;;;;;;5004593;28;20175;-72
2021/11/03 04:32:23;;;;;;;103.83;27.03;;;;;;;;;;5004944;28;20182;-73
2021/11/03 04:34:48;;;;;;;69.47;25.53;;;;;;;;;;5008013;28;20673;-74
2021/11/03 04:37:14;;;;;;;158.33;31.27;;;;;;;;;;5002524;28;20674;-74
2021/11/03 04:39:39;;;;;;;97.13;28.67;;;;;;;;;;5006383;28;20182;-73
2021/11/03 04:42:05;;;;;;;95.83;27.53;;;;;;;;;;5007382;28;21323;-73
2021/11/03 04:44:30;;;;;;;44.03;24.23;;;;;;;;;;5004409;28;20256;-74
2021/11/03 04:46:55;;;;;;;219.53;36.30;;;;;;;;;;5008564;28;20213;-73
2021/11/03 04:49:20;;;;;;;64.70;25.53;;;;;;;;;;5007954;28;20178;-74
2021/11/03 04:51:45;;;;;;;55.73;24.67;;;;;;;;;;5007261;28;20178;-73
2021/11/03 04:54:11;;;;;;;53.03;25.27;;;;;;;;;;5007711;28;20602;-74
2021/11/03 04:56:36;;;;;;;63.47;26.57;;;;;;;;;;5015278;28;20562;-74
2021/11/03 04:59:02;;;;;;;84.10;28.67;;;;;;;;;;5008687;28;20587;-73
2021/11/03 05:01:27;;;;;;;74.40;27.57;;;;;;;;;;5007828;28;20194;-73
2021/11/03 05:03:54;;;;;;;74.90;28.17;;;;;;;;;;5008424;28;20205;-73
2021/11/03 05:06:21;;;;;;;47.97;23.67;;;;;;;;;;5010984;28;20598;-73
2021/11/03 05:08:46;;;;;;;38.47;23.13;;;;;;;;;;5011743;28;20178;-73
2021/11/03 05:11:12;;;;;;;45.40;26.27;;;;;;;;;;5011329;28;20542;-74
2021/11/03 05:13:37;;;;;;;52.90;26.50;;;;;;;;;;5008139;28;20194;-73
2021/11/03 05:16:02;;;;;;;45.87;26.03;;;;;;;;;;5011779;28;20190;-73
2021/11/03 05:18:27;;;;;;;49.63;26.70;;;;;;;;;;5011067;28;20190;-74
2021/11/03 05:20:53;;;;;;;41.20;26.10;;;;;;;;;;5011411;28;20174;-73
2021/11/03 05:23:18;;;;;;;46.13;27.40;;;;;;;;;;5010143;28;20660;-73
2021/11/03 05:25:43;;;;;;;40.43;24.53;;;;;;;;;;5009432;28;20230;-73
2021/11/03 05:28:10;;;;;;;48.43;25.90;;;;;;;;;;5010881;28;20179;-73
2021/11/03 05:30:36;;;;;;;41.33;26.33;;;;;;;;;;5009493;28;20734;-73
2021/11/03 05:33:01;;;;;;;43.90;24.33;;;;;;;;;;5010860;28;20264;-74
2021/11/03 05:35:27;;;;;;;47.57;27.93;;;;;;;;;;5012280;28;20293;-73
2021/11/03 05:37:52;;;;;;;43.00;25.57;;;;;;;;;;5008285;28;20193;-74
2021/11/03 05:40:20;;;;;;;48.77;27.50;;;;;;;;;;5010928;28;20688;-73
2021/11/03 05:42:46;;;;;;;43.33;24.77;;;;;;;;;;5010663;28;21708;-73
2021/11/03 05:45:11;;;;;;;38.53;23.57;;;;;;;;;;5011055;28;20672;-73
2021/11/03 05:47:36;;;;;;;43.70;25.13;;;;;;;;;;5009277;28;20193;-74
2021/11/03 05:50:02;;;;;;;36.90;24.73;;;;;;;;;;5010189;28;20187;-73
2021/11/03 05:52:27;;;;;;;40.23;24.70;;;;;;;;;;5011959;28;20244;-73
2021/11/03 05:54:53;;;;;;;40.40;23.97;;;;;;;;;;5013442;28;20771;-73
2021/11/03 05:57:27;;;;;;;43.23;25.57;;;;;;;;;;5012629;28;20209;-73
2021/11/03 05:59:52;;;;;;;42.47;23.77;;;;;;;;;;5010974;28;20296;-73
2021/11/03 06:02:18;;;;;;;40.30;23.00;;;;;;;;;;5006507;28;20210;-73
2021/11/03 06:04:43;;;;;;;40.30;24.70;;;;;;;;;;5009942;28;20207;-73
2021/11/03 06:07:09;;;;;;;44.47;23.37;;;;;;;;;;5009901;28;20237;-73
2021/11/03 06:09:34;;;;;;;35.77;22.50;;;;;;;;;;5008843;28;20186;-72
2021/11/03 06:12:00;;;;;;;38.70;23.37;;;;;;;;;;5009983;28;20278;-74
2021/11/03 06:14:25;;;;;;;36.97;23.27;;;;;;;;;;5010038;28;20198;-75
2021/11/03 06:16:50;;;;;;;40.53;22.60;;;;;;;;;;5010108;28;20722;-72
2021/11/03 06:19:15;;;;;;;39.60;23.97;;;;;;;;;;5012587;28;20182;-72
2021/11/03 06:21:40;;;;;;;40.70;23.57;;;;;;;;;;5010053;28;20281;-73
2021/11/03 06:24:06;;;;;;;38.93;22.60;;;;;;;;;;5028276;28;20198;-72
2021/11/03 06:26:31;;;;;;;38.10;22.50;;;;;;;;;;5014353;28;20206;-73
2021/11/03 06:28:56;;;;;;;40.37;22.83;;;;;;;;;;5008581;28;20190;-72
2021/11/03 06:31:22;;;;;;;34.07;21.63;;;;;;;;;;5012883;28;20601;-72
2021/11/03 06:33:48;;;;;;;38.00;22.13;;;;;;;;;;5022276;28;20198;-72
2021/11/03 06:36:14;;;;;;;39.67;23.17;;;;;;;;;;5009654;28;20563;-74
2021/11/03 06:38:39;;;;;;;48.90;24.53;;;;;;;;;;5008659;28;20301;-75
2021/11/03 06:41:04;;;;;;;43.83;23.30;;;;;;;;;;5009656;28;20182;-72
2021/11/03 06:43:29;;;;;;;43.70;25.50;;;;;;;;;;5008375;28;20258;-72
2021/11/03 06:45:55;;;;;;;57.60;28.70;;;;;;;;;;5021904;28;20762;-73
2021/11/03 06:48:20;;;;;;;52.40;26.13;;;;;;;;;;5007935;28;20174;-72
2021/11/03 06:50:45;;;;;;;111.67;33.77;;;;;;;;;;5022015;28;20669;-73
2021/11/03 06:53:12;;;;;;;105.90;30.97;;;;;;;;;;5007692;28;20846;-72
2021/11/03 06:55:38;;;;;;;94.27;32.00;;;;;;;;;;5009650;28;20206;-73
2021/11/03 06:58:04;;;;;;;76.77;28.47;;;;;;;;;;5012121;28;20175;-73
2021/11/03 07:00:31;;;;;;;59.47;27.70;;;;;;;;;;5009939;28;20183;-74
2021/11/03 07:02:57;;;;;;;61.87;28.63;;;;;;;;;;5008945;28;20241;-74
2021/11/03 07:05:22;;;;;;;58.50;29.33;;;;;;;;;;5009750;28;21095;-74
2021/11/03 07:07:47;;;;;;;128.00;35.07;;;;;;;;;;5010285;28;20182;-72
2021/11/03 07:10:18;;;;;;;95.87;33.50;;;;;;;;;;5008184;28;20175;-75
2021/11/03 07:12:43;;;;;;;259.83;43.33;;;;;;;;;;5006663;28;20188;-73
2021/11/03 07:15:09;;;;;;;143.50;34.53;;;;;;;;;;5009624;28;20931;-73
2021/11/03 07:17:34;;;;;;;203.60;41.63;;;;;;;;;;5014015;28;20643;-73
2021/11/03 07:19:59;;;;;;;98.47;34.23;;;;;;;;;;5011883;28;20251;-73
2021/11/03 07:22:24;;;;;;;161.20;35.70;;;;;;;;;;5017079;28;20210;-73
2021/11/03 07:24:49;;;;;;;79.77;29.93;;;;;;;;;;5008829;28;22632;-73
2021/11/03 07:27:15;;;;;;;134.50;37.53;;;;;;;;;;5013486;28;20210;-73
2021/11/03 07:29:41;;;;;;;76.07;27.80;;;;;;;;;;5007372;28;20177;-72
2021/11/03 07:32:07;;;;;;;89.83;31.60;;;;;;;;;;5008691;28;20174;-74
2021/11/03 07:34:32;;;;;;;89.93;30.10;;;;;;;;;;5005792;28;20205;-74
2021/11/03 07:36:57;;;;;;;158.07;32.67;;;;;;;;;;5009929;28;20181;-73
2021/11/03 07:39:23;;;;;;;69.30;26.50;;;;;;;;;;5007476;28;20206;-73
2021/11/03 07:41:48;;;;;;;102.07;27.97;;;;;;;;;;5009076;28;20274;-74
2021/11/03 07:44:16;;;;;;;45.40;25.27;;;;;;;;;;5010077;28;20498;-72
2021/11/03 07:46:41;;;;;;;89.83;28.90;;;;;;;;;;5009465;28;20202;-72
2021/11/03 07:49:06;;;;;;;64.27;26.80;;;;;;;;;;5010539;28;20179;-73
2021/11/03 07:51:31;;;;;;;51.43;26.73;;;;;;;;;;5010331;28;20212;-74
2021/11/03 07:53:59;;;;;;;64.87;26.00;;;;;;;;;;5009370;28;20248;-73
2021/11/03 07:56:25;;;;;;;116.47;30.80;;;;;;;;;;5009565;28;20236;-74
2021/11/03 07:58:51;;;;;;;105.00;25.93;;;;;;;;;;5011244;28;20702;-73
2021/11/03 08:01:16;;;;;;;69.20;24.77;;;;;;;;;;5008900;28;20205;-73
2021/11/03 08:03:41;;;;;;;79.47;25.20;;;;;;;;;;5008982;28;20186;-73
2021/11/03 08:06:07;;;;;;;140.17;33.80;;;;;;;;;;5006826;28;20239;-73
2021/11/03 08:08:33;;;;;;;72.10;28.27;;;;;;;;;;5009669;28;20183;-73
2021/11/03 08:10:59;;;;;;;70.07;29.57;;;;;;;;;;5010179;28;20312;-73
2021/11/03 08:13:27;;;;;;;43.40;27.27;;;;;;;;;;5006929;28;20613;-73
2021/11/03 08:15:53;;;;;;;65.90;29.53;;;;;;;;;;5009650;28;20276;-73
2021/11/03 08:18:19;;;;;;;80.70;29.60;;;;;;;;;;5016896;28;20704;-73
2021/11/03 08:20:45;;;;;;;92.03;30.27;;;;;;;;;;5008280;28;20717;-73
2021/11/03 08:23:11;;;;;;;55.77;26.53;;;;;;;;;;5006261;28;20274;-73
2021/11/03 08:25:37;;;;;;;90.33;29.57;;;;;;;;;;5008060;28;20301;-73
2021/11/03 08:28:02;;;;;;;62.87;29.27;;;;;;;;;;5010027;28;20665;-73
2021/11/03 08:30:28;;;;;;;52.60;28.20;;;;;;;;;;5009434;28;20179;-73
2021/11/03 08:32:55;;;;;;;74.50;29.47;;;;;;;;;;5000734;28;21005;-73
2021/11/03 08:35:22;;;;;;;61.77;28.53;;;;;;;;;;5010866;28;20629;-74
2021/11/03 08:37:49;;;;;;;67.97;27.60;;;;;;;;;;5006633;28;20191;-73
2021/11/03 08:40:15;;;;;;;72.57;27.90;;;;;;;;;;5010253;28;20179;-73
2021/11/03 08:42:40;;;;;;;79.43;27.57;;;;;;;;;;5015768;28;20663;-73
2021/11/03 08:45:07;;;;;;;66.57;26.13;;;;;;;;;;5013331;28;20194;-74
2021/11/03 08:47:33;;;;;;;49.40;24.63;;;;;;;;;;5014197;28;20755;-73
2021/11/03 08:49:58;;;;;;;36.77;24.17;;;;;;;;;;5014077;28;20171;-74
2021/11/03 08:52:23;;;;;;;43.00;24.77;;;;;;;;;;5015092;28;20213;-73
2021/11/03 08:54:49;;;;;;;49.73;23.87;;;;;;;;;;5012921;28;20294;-73
2021/11/03 08:57:15;;;;;;;40.23;22.93;;;;;;;;;;5014700;28;20262;-74
2021/11/03 08:59:40;;;;;;;40.40;22.07;;;;;;;;;;5021200;28;21874;-74
2021/11/03 09:02:06;;;;;;;48.40;22.90;;;;;;;;;;5013189;28;20186;-74
2021/11/03 09:04:33;;;;;;;56.10;23.83;;;;;;;;;;5014381;28;20325;-74
2021/11/03 09:06:58;;;;;;;32.10;20.47;;;;;;;;;;5014119;28;20748;-74
2021/11/03 09:09:25;;;;;;;35.10;22.00;;;;;;;;;;5012633;28;20320;-73
2021/11/03 09:11:51;;;;;;;38.17;19.83;;;;;;;;;;5013055;28;20687;-73
2021/11/03 09:14:18;;;;;;;30.30;18.77;;;;;;;;;;5010927;28;20256;-73
2021/11/03 09:16:43;;;;;;;24.73;19.10;;;;;;;;;;5013819;28;20178;-74
2021/11/03 09:19:08;;;;;;;30.00;19.53;;;;;;;;;;5018529;28;20217;-74
2021/11/03 09:21:33;;;;;;;35.00;20.20;;;;;;;;;;5016032;28;20206;-73
2021/11/03 09:23:58;;;;;;;43.33;20.70;;;;;;;;;;5012257;28;20242;-74
2021/11/03 09:26:24;;;;;;;32.77;21.67;;;;;;;;;;5015830;28;20209;-73
2021/11/03 09:28:51;;;;;;;38.23;20.93;;;;;;;;;;5014465;28;20174;-73
2021/11/03 09:31:17;;;;;;;29.13;19.63;;;;;;;;;;5014800;28;20186;-73
2021/11/03 09:33:42;;;;;;;48.27;27.47;;;;;;;;;;5016236;28;20178;-73
2021/11/03 09:36:13;;;;;;;36.40;24.40;;;;;;;;;;5008676;28;20287;-74
2021/11/03 09:38:38;;;;;;;33.80;23.93;;;;;;;;;;5012309;28;20190;-75
2021/11/03 09:41:22;;;;;;;58.67;28.10;;;;;;;;;;5010746;28;20174;-73
2021/11/03 09:43:53;;;;;;;38.33;26.30;;;;;;;;;;5013138;28;20197;-74
2021/11/03 09:46:18;;;;;;;38.83;25.63;;;;;;;;;;5011614;28;20206;-74
2021/11/03 09:48:45;;;;;;;43.10;28.27;;;;;;;;;;5012681;28;20187;-74
2021/11/03 09:51:19;;;;;;;54.50;27.80;;;;;;;;;;5008898;28;20562;-74
2021/11/03 09:53:47;;;;;;;44.47;26.60;;;;;;;;;;5010231;28;20200;-74
2021/11/03 09:56:14;;;;;;;37.60;26.83;;;;;;;;;;5012968;28;20497;-72
2021/11/03 09:58:43;;;;;;;72.20;25.70;;;;;;;;;;5015547;28;20183;-73
2021/11/03 10:01:17;;;;;;;46.77;25.73;;;;;;;;;;5010927;28;20186;-74
2021/11/03 10:03:57;;;;;;;51.53;25.73;;;;;;;;;;5010197;28;20174;-75
2021/11/03 10:06:28;;;;;;;39.70;25.47;;;;;;;;;;5012630;28;20301;-74
2021/11/03 10:08:53;;;;;;;88.17;27.20;;;;;;;;;;5017246;28;20174;-75
2021/11/03 10:11:18;;;;;;;46.67;24.73;;;;;;;;;;5013367;28;20620;-74
2021/11/03 10:13:45;;;;;;;52.93;26.77;;;;;;;;;;5011906;28;20268;-73
2021/11/03 10:16:10;;;;;;;106.57;26.17;;;;;;;;;;5015055;28;20220;-73
2021/11/03 10:18:37;;;;;;;67.23;24.37;;;;;;;;;;5020541;28;20278;-73
2021/11/03 10:21:14;;;;;;;55.17;25.60;;;;;;;;;;5013959;28;20455;-73
2021/11/03 10:23:48;;;;;;;81.20;25.63;;;;;;;;;;5015004;28;20671;-74
2021/11/03 10:26:13;;;;;;;31.37;24.10;;;;;;;;;;5025569;28;20722;-73
2021/11/03 10:28:40;;;;;;;80.43;27.83;;;;;;;;;;5013967;28;20179;-74
2021/11/03 10:31:17;;;;;;;61.57;25.87;;;;;;;;;;5010507;28;20181;-73
2021/11/03 10:33:43;;;;;;;59.53;24.17;;;;;;;;;;5012703;28;20201;-74
2021/11/03 10:36:17;;;;;;;63.70;24.27;;;;;;;;;;5012620;28;20730;-73
2021/11/03 10:38:54;;;;;;;68.70;23.23;;;;;;;;;;5008523;28;20221;-73
2021/11/03 10:41:25;;;;;;;77.00;24.27;;;;;;;;;;5013667;28;20185;-73
2021/11/03 10:44:01;;;;;;;42.90;24.87;;;;;;;;;;5009387;28;20296;-74
2021/11/03 10:46:30;;;;;;;30.23;23.83;;;;;;;;;;5012411;28;20218;-74
2021/11/03 10:49:14;;;;;;;54.23;27.10;;;;;;;;;;5010554;28;20553;-74
2021/11/03 10:51:40;;;;;;;49.23;26.90;;;;;;;;;;5014483;28;20899;-73
2021/11/03 10:54:19;;;;;;;55.03;27.63;;;;;;;;;;5014914;28;20202;-73
2021/11/03 10:56:50;;;;;;;64.70;28.07;;;;;;;;;;5009328;28;20336;-73
2021/11/03 10:59:19;;;;;;;47.50;25.47;;;;;;;;;;5012982;28;20186;-73
2021/11/03 11:01:45;;;;;;;187.80;31.27;;;;;;;;;;5013523;28;20193;-73
2021/11/03 11:04:13;;;;;;;47.67;25.50;;;;;;;;;;5012088;28;20221;-74
2021/11/03 11:06:45;;;;;;;49.13;25.33;;;;;;;;;;5011637;28;20585;-73
2021/11/03 11:09:19;;;;;;;35.67;25.53;;;;;;;;;;5008194;28;20856;-74
2021/11/03 11:11:46;;;;;;;90.23;28.23;;;;;;;;;;5007940;28;20212;-74
2021/11/03 11:14:18;;;;;;;76.17;28.63;;;;;;;;;;5010728;28;20235;-74
2021/11/03 11:16:43;;;;;;;46.60;26.60;;;;;;;;;;5010837;28;20185;-75
2021/11/03 11:19:30;;;;;;;39.83;25.67;;;;;;;;;;5007346;28;20185;-75
2021/11/03 11:22:05;;;;;;;35.43;25.43;;;;;;;;;;5011427;28;20446;-75
2021/11/03 11:24:33;;;;;;;48.23;28.37;;;;;;;;;;5011437;28;20226;-75
2021/11/03 11:27:01;;;;;;;44.27;27.07;;;;;;;;;;5013471;28;20210;-75
2021/11/03 11:29:29;;;;;;;38.70;27.27;;;;;;;;;;5009310;28;20178;-75
2021/11/03 11:32:13;;;;;;;46.60;25.30;;;;;;;;;;5010816;28;20652;-75
2021/11/03 11:34:44;;;;;;;42.33;28.73;;;;;;;;;;5012547;28;20202;-74
2021/11/03 11:37:09;;;;;;;52.17;26.53;;;;;;;;;;5010920;28;20192;-74
2021/11/03 11:39:39;;;;;;;63.07;29.90;;;;;;;;;;5007132;28;20190;-75
2021/11/03 11:42:08;;;;;;;46.60;27.13;;;;;;;;;;5013187;28;20644;-74
2021/11/03 11:44:34;;;;;;;44.27;27.77;;;;;;;;;;5008233;28;20210;-73
2021/11/03 11:47:03;;;;;;;33.17;26.10;;;;;;;;;;5010040;28;20218;-74
2021/11/03 11:49:38;;;;;;;37.37;26.97;;;;;;;;;;5009399;28;20182;-75
2021/11/03 11:52:11;;;;;;;37.63;26.10;;;;;;;;;;5004461;28;20654;-75
2021/11/03 11:54:38;;;;;;;34.47;25.50;;;;;;;;;;5011626;28;20727;-74
2021/11/03 11:57:03;;;;;;;39.67;28.38;;;;;;;;;;5012779;28;20184;-75
2021/11/03 11:59:47;;;;;;;39.63;27.83;;;;;;;;;;5011483;28;20221;-74
2021/11/03 12:02:18;;;;;;;36.10;26.43;;;;;;;;;;5009222;28;20942;-74
2021/11/03 12:04:43;;;;;;;42.38;28.58;;;;;;;;;;5010515;28;20935;-74
2021/11/03 12:07:15;;;;;;;37.78;27.30;;;;;;;;;;5010328;28;20198;-74
2021/11/03 12:09:42;;;;;;;34.47;26.40;;;;;;;;;;5009973;28;20182;-74
2021/11/03 12:12:08;;;;;;;39.58;26.20;;;;;;;;;;5010436;28;20183;-74
2021/11/03 12:15:02;;;;;;;37.60;25.47;;;;;;;;;;5010997;28;20556;-74
2021/11/03 12:17:46;;;;;;;34.70;26.38;;;;;;;;;;5005794;28;20221;-74
2021/11/03 12:20:23;;;;;;;41.77;28.50;;;;;;;;;;5010196;28;20197;-74
2021/11/03 12:22:50;;;;;;;50.63;28.00;;;;;;;;;;5010270;28;20178;-74
2021/11/03 12:25:19;;;;;;;40.97;27.95;;;;;;;;;;5014043;28;20221;-74
2021/11/03 12:27:48;;;;;;;38.05;27.08;;;;;;;;;;5014030;28;20202;-74
2021/11/03 12:30:18;;;;;;;39.70;28.85;;;;;;;;;;5014215;28;20195;-74
2021/11/03 12:32:43;;;;;;;36.55;27.35;;;;;;;;;;5016141;28;20233;-75
2021/11/03 12:35:17;;;;;;;39.90;30.38;;;;;;;;;;5015480;28;20734;-74
2021/11/03 12:37:43;;;;;;;41.53;29.07;;;;;;;;;;5013103;28;20438;-74
2021/11/03 12:40:21;;;;;;;38.83;29.83;;;;;;;;;;5015189;28;20190;-74
2021/11/03 12:42:53;;;;;;;37.15;29.05;;;;;;;;;;5012478;28;20248;-75
2021/11/03 12:45:20;;;;;;;46.25;33.33;;;;;;;;;;5026507;28;20233;-75
2021/11/03 12:47:45;;;;;;;55.92;34.65;;;;;;;;;;5014114;28;20676;-74
2021/11/03 12:50:16;;;;;;;45.83;33.22;;;;;;;;;;5013556;28;20189;-74
2021/11/03 12:52:43;;;;;;;43.00;31.80;;;;;;;;;;5013037;28;20189;-74
2021/11/03 12:55:20;;;;;;;40.28;30.10;;;;;;;;;;5014042;28;20194;-75
2021/11/03 12:57:46;;;;;;;41.88;31.17;;;;;;;;;;5016097;28;20296;-73
2021/11/03 13:00:16;;;;;;;41.30;30.50;;;;;;;;;;5020241;28;20276;-73
2021/11/03 13:02:46;;;;;;;39.75;30.75;;;;;;;;;;5013583;28;20269;-74
2021/11/03 13:05:19;;;;;;;44.55;32.45;;;;;;;;;;5015643;28;20205;-74
2021/11/03 13:07:44;;;;;;;42.67;31.63;;;;;;;;;;5018744;28;20206;-73
2021/11/03 13:10:12;;;;;;;40.80;31.08;;;;;;;;;;5014092;28;20178;-74
2021/11/03 13:12:38;;;;;;;41.55;30.58;;;;;;;;;;5012241;28;20182;-75
2021/11/03 13:15:14;;;;;;;39.28;30.42;;;;;;;;;;5017251;28;20260;-74
2021/11/03 13:17:46;;;;;;;41.55;32.15;;;;;;;;;;5017340;28;20182;-74
2021/11/03 13:20:40;;;;;;;36.97;27.38;;;;;;;;;;5013726;28;20243;-74
2021/11/03 13:23:10;;;;;;;36.10;28.42;;;;;;;;;;4982602;28;20545;-75
2021/11/03 13:25:38;;;;;;;39.15;29.27;;;;;;;;;;5013356;28;20233;-75
2021/11/03 13:28:05;;;;;;;33.92;26.02;;;;;;;;;;5017361;28;20320;-74
2021/11/03 13:30:33;;;;;;;38.20;29.00;;;;;;;;;;5014049;28;20182;-75
2021/11/03 13:33:03;;;;;;;38.95;29.00;;;;;;;;;;5012263;28;20563;-74
2021/11/03 13:35:30;;;;;;;38.70;28.67;;;;;;;;;;5015381;28;20193;-74
2021/11/03 13:37:57;;;;;;;43.47;31.63;;;;;;;;;;5012823;28;20322;-74
2021/11/03 13:40:45;;;;;;;40.13;30.58;;;;;;;;;;5012855;28;20186;-74
2021/11/03 13:43:15;;;;;;;41.45;30.27;;;;;;;;;;5013465;28;20190;-74
2021/11/03 13:45:42;;;;;;;44.55;31.48;;;;;;;;;;5011774;28;20206;-73
2021/11/03 13:48:15;;;;;;;40.70;30.25;;;;;;;;;;5013415;28;20232;-74
2021/11/03 13:50:47;;;;;;;40.20;30.15;;;;;;;;;;5013777;28;20257;-74
2021/11/03 13:53:15;;;;;;;42.47;31.00;;;;;;;;;;5019855;28;20184;-74
2021/11/03 13:55:53;;;;;;;41.72;30.25;;;;;;;;;;5028371;28;20293;-74
2021/11/03 13:58:34;;;;;;;42.83;31.23;;;;;;;;;;5029066;28;20541;-74
2021/11/03 14:01:06;;;;;;;42.38;30.52;;;;;;;;;;5030026;28;20178;-74
2021/11/03 14:03:39;;;;;;;44.88;32.30;;;;;;;;;;5013740;28;20178;-74
2021/11/03 14:06:20;;;;;;;44.40;32.67;;;;;;;;;;5013414;28;20677;-74
2021/11/03 14:08:46;;;;;;;44.92;32.13;;;;;;;;;;5012982;28;20240;-74
2021/11/03 14:11:11;;;;;;;45.40;32.30;;;;;;;;;;5012297;28;20664;-74
2021/11/03 14:13:37;;;;;;;41.85;31.75;;;;;;;;;;5011496;28;20193;-74
2021/11/03 14:16:17;;;;;;;45.83;31.98;;;;;;;;;;5012239;28;20189;-74
2021/11/03 14:18:42;;;;;;;47.13;32.53;;;;;;;;;;5013225;28;20330;-75